Time;durP1;ratioP1;P1;durP2;ratioP2;P2;SDS_P1;SDS_P2;PMS_P1;PMS_P2;Temp;Humidity;BMP_temperature;BMP_pressure;BME280_temperature;BME280_humidity;BME280_pressure;Samples;Min_cycle;Max_cycle;Signal;HPM_P1;HPM_P2
2021/11/21 00:02:07;;;;;;;1.00;0.30;;;;;;;2.97;89.24;97074.06;5021398;28;20182;-65
2021/11/21 00:04:33;;;;;;;0.55;0.30;;;;;;;2.95;89.29;97065.59;5024534;28;20042;-63
2021/11/21 00:06:59;;;;;;;0.70;0.47;;;;;;;3.02;89.14;97084.13;4995889;28;20041;-63
2021/11/21 00:09:25;;;;;;;0.90;0.40;;;;;;;3.05;88.95;97072.88;5016101;28;20042;-65
2021/11/21 00:11:51;;;;;;;0.50;0.40;;;;;;;3.19;88.93;97085.91;5011207;28;20034;-64
2021/11/21 00:14:17;;;;;;;0.73;0.38;;;;;;;3.30;88.37;97086.22;5041066;28;20049;-63
2021/11/21 00:16:43;;;;;;;0.40;0.28;;;;;;;3.34;87.45;97092.91;5018072;28;20046;-65
2021/11/21 00:19:09;;;;;;;1.52;0.40;;;;;;;3.36;87.76;97096.19;5036031;28;20057;-67
2021/11/21 00:21:35;;;;;;;0.47;0.38;;;;;;;3.38;87.06;97096.97;5025662;28;20045;-65
2021/11/21 00:24:01;;;;;;;0.93;0.30;;;;;;;3.35;87.45;97105.63;5019751;28;20041;-64
2021/11/21 00:26:27;;;;;;;1.08;0.35;;;;;;;3.31;88.40;97101.56;5028966;28;20048;-63
2021/11/21 00:28:53;;;;;;;1.42;0.50;;;;;;;3.18;89.35;97103.03;5026550;28;20132;-63
2021/11/21 00:31:19;;;;;;;2.65;0.40;;;;;;;3.14;90.96;97100.69;5048340;28;20538;-64
2021/11/21 00:33:45;;;;;;;0.55;0.30;;;;;;;2.99;92.95;97103.03;5018472;28;20097;-67
2021/11/21 00:36:11;;;;;;;1.27;0.50;;;;;;;2.97;94.12;97104.84;5011311;28;20045;-62
2021/11/21 00:38:38;;;;;;;1.13;0.50;;;;;;;2.98;94.78;97106.50;5012227;28;20045;-63
2021/11/21 00:41:04;;;;;;;0.80;0.43;;;;;;;3.02;94.75;97107.22;5014113;28;20757;-64
2021/11/21 00:43:31;;;;;;;0.63;0.30;;;;;;;2.99;95.03;97113.28;5014878;28;20037;-64
2021/11/21 00:45:57;;;;;;;0.55;0.32;;;;;;;2.99;95.13;97108.16;5012727;28;20127;-64
2021/11/21 00:48:25;;;;;;;0.57;0.40;;;;;;;3.01;94.61;97107.28;5011347;28;20081;-65
2021/11/21 00:50:54;;;;;;;0.70;0.50;;;;;;;3.01;94.82;97113.25;5023955;28;20414;-64
2021/11/21 00:53:20;;;;;;;0.80;0.40;;;;;;;2.95;94.57;97098.13;5012984;28;20407;-64
2021/11/21 00:56:02;;;;;;;0.73;0.50;;;;;;;3.04;93.43;97120.78;5013327;28;20060;-65
2021/11/21 00:58:29;;;;;;;1.50;0.40;;;;;;;3.00;93.17;97119.25;5025951;28;20041;-63
2021/11/21 01:00:55;;;;;;;0.93;0.30;;;;;;;3.04;93.30;97122.50;5024882;28;20136;-64
2021/11/21 01:03:22;;;;;;;0.95;0.28;;;;;;;3.06;93.13;97121.56;5023487;28;20128;-64
2021/11/21 01:05:49;;;;;;;3.13;0.50;;;;;;;3.20;92.63;97123.47;5016169;28;20052;-64
2021/11/21 01:08:16;;;;;;;0.80;0.38;;;;;;;3.28;92.58;97126.56;5014986;28;20045;-66
2021/11/21 01:10:43;;;;;;;0.52;0.30;;;;;;;3.38;91.86;97125.22;5015854;28;20037;-65
2021/11/21 01:13:10;;;;;;;0.60;0.38;;;;;;;3.38;90.53;97120.91;5017004;28;20511;-63
2021/11/21 01:15:36;;;;;;;0.85;0.35;;;;;;;3.29;90.80;97121.34;5023113;28;20100;-62
2021/11/21 01:18:03;;;;;;;0.50;0.35;;;;;;;3.15;90.90;97121.13;5021924;28;20038;-63
2021/11/21 01:20:31;;;;;;;0.40;0.30;;;;;;;3.03;91.37;97115.75;5014235;28;20056;-64
2021/11/21 01:22:57;;;;;;;0.75;0.30;;;;;;;3.06;91.85;97126.69;5022446;28;20144;-66
2021/11/21 01:25:23;;;;;;;0.35;0.30;;;;;;;3.01;91.67;97133.75;5022494;28;20042;-63
2021/11/21 01:27:49;;;;;;;1.13;0.43;;;;;;;3.01;91.99;97122.66;5012222;28;20112;-65
2021/11/21 01:30:19;;;;;;;0.30;0.22;;;;;;;3.03;91.81;97136.28;5019070;28;20125;-65
2021/11/21 01:32:45;;;;;;;1.30;0.30;;;;;;;2.96;91.63;97139.13;5024944;28;20812;-64
2021/11/21 01:35:12;;;;;;;0.40;0.40;;;;;;;3.06;91.78;97149.78;5011595;28;20041;-64
2021/11/21 01:37:38;;;;;;;0.30;0.30;;;;;;;3.04;91.90;97146.44;5020974;28;20100;-65
2021/11/21 01:40:06;;;;;;;0.30;0.30;;;;;;;3.09;91.73;97136.00;5011575;28;20096;-64
2021/11/21 01:42:32;;;;;;;0.20;0.20;;;;;;;3.06;91.15;97138.69;5012514;28;20042;-65
2021/11/21 01:44:58;;;;;;;0.35;0.30;;;;;;;3.12;91.03;97141.81;5013267;28;20046;-65
2021/11/21 01:47:24;;;;;;;0.55;0.20;;;;;;;3.13;91.78;97138.34;5013478;28;20095;-64
2021/11/21 01:49:50;;;;;;;0.20;0.20;;;;;;;3.15;91.63;97145.97;5025036;28;20045;-64
2021/11/21 01:52:16;;;;;;;0.30;0.10;;;;;;;3.19;92.26;97145.75;5000936;28;20038;-66
2021/11/21 01:54:42;;;;;;;0.35;0.22;;;;;;;3.15;92.41;97138.25;5014202;28;20095;-63
2021/11/21 01:57:07;;;;;;;0.80;0.20;;;;;;;3.19;92.05;97150.09;5029699;28;20053;-64
2021/11/21 01:59:34;;;;;;;0.45;0.20;;;;;;;3.19;91.58;97147.50;5027872;28;20552;-64
2021/11/21 02:02:00;;;;;;;1.00;0.40;;;;;;;3.18;91.50;97150.97;5016999;28;20500;-65
2021/11/21 02:04:26;;;;;;;0.30;0.20;;;;;;;3.20;91.25;97151.72;5013980;28;20046;-65
2021/11/21 02:06:52;;;;;;;0.85;0.32;;;;;;;3.16;90.96;97145.91;5025503;28;20038;-64
2021/11/21 02:09:18;;;;;;;0.70;0.20;;;;;;;3.22;90.34;97148.19;5019952;28;20041;-64
2021/11/21 02:11:44;;;;;;;0.20;0.20;;;;;;;3.23;90.24;97149.03;5019698;28;20038;-64
2021/11/21 02:14:10;;;;;;;0.30;0.10;;;;;;;3.16;88.80;97155.34;5023030;28;20044;-64
2021/11/21 02:16:36;;;;;;;0.70;0.30;;;;;;;3.16;88.93;97145.06;5018438;28;20053;-64
2021/11/21 02:19:02;;;;;;;0.32;0.25;;;;;;;3.11;88.69;97137.59;5015190;28;20048;-64
2021/11/21 02:21:28;;;;;;;0.43;0.20;;;;;;;3.29;88.09;97159.03;5038971;28;20436;-64
2021/11/21 02:23:55;;;;;;;1.65;0.30;;;;;;;3.24;87.79;97160.97;5025054;28;20054;-63
2021/11/21 02:26:21;;;;;;;1.70;0.25;;;;;;;3.11;88.11;97145.28;5032062;28;20042;-62
2021/11/21 02:28:49;;;;;;;0.52;0.30;;;;;;;3.22;88.39;97166.16;5021877;28;20468;-66
2021/11/21 02:31:15;;;;;;;1.77;0.50;;;;;;;3.22;88.38;97163.59;5028136;28;20075;-65
2021/11/21 02:33:42;;;;;;;0.88;0.30;;;;;;;3.18;88.05;97174.06;5023664;28;20052;-66
2021/11/21 02:36:08;;;;;;;0.88;0.30;;;;;;;3.08;87.90;97154.88;5015097;28;20035;-64
2021/11/21 02:38:35;;;;;;;0.25;0.20;;;;;;;3.18;87.22;97156.13;5014782;28;20042;-64
2021/11/21 02:41:04;;;;;;;1.15;0.30;;;;;;;3.13;87.81;97169.16;5017037;28;20041;-63
2021/11/21 02:43:30;;;;;;;0.38;0.20;;;;;;;3.13;87.43;97169.16;5015097;28;20121;-63
2021/11/21 02:45:56;;;;;;;0.88;0.30;;;;;;;3.13;87.04;97163.19;5024535;28;20535;-67
2021/11/21 02:48:29;;;;;;;0.80;0.30;;;;;;;3.13;86.47;97176.03;5035811;28;20037;-64
2021/11/21 02:50:56;;;;;;;0.47;0.35;;;;;;;3.15;86.15;97174.19;5020065;28;20132;-66
2021/11/21 02:53:26;;;;;;;0.50;0.40;;;;;;;3.13;85.76;97179.44;5046466;28;20037;-63
2021/11/21 02:55:54;;;;;;;0.20;0.20;;;;;;;3.22;85.48;97165.34;5015412;28;20616;-63
2021/11/21 02:58:20;;;;;;;0.73;0.22;;;;;;;3.22;84.80;97162.75;5017293;28;20042;-64
2021/11/21 03:00:45;;;;;;;0.63;0.25;;;;;;;3.16;84.25;97147.63;5041190;28;20429;-67
2021/11/21 03:03:15;;;;;;;0.35;0.28;;;;;;;3.30;84.16;97169.19;5010975;28;20045;-66
2021/11/21 03:05:41;;;;;;;0.95;0.50;;;;;;;3.26;83.84;97169.41;5028479;28;20053;-63
2021/11/21 03:08:07;;;;;;;1.08;0.60;;;;;;;3.23;84.03;97161.88;5023278;28;20095;-65
2021/11/21 03:10:34;;;;;;;0.43;0.30;;;;;;;3.27;83.40;97174.50;5015745;28;20045;-65
2021/11/21 03:13:02;;;;;;;0.98;0.20;;;;;;;3.29;82.74;97172.69;5029200;28;20049;-64
2021/11/21 03:15:28;;;;;;;0.40;0.40;;;;;;;3.33;82.58;97163.94;5031190;28;20068;-63
2021/11/21 03:17:54;;;;;;;1.10;0.20;;;;;;;3.33;82.74;97165.69;5031416;28;20037;-65
2021/11/21 03:20:23;;;;;;;0.90;0.32;;;;;;;3.41;82.03;97174.69;5030836;28;20461;-66
2021/11/21 03:22:49;;;;;;;0.20;0.20;;;;;;;3.22;81.97;97148.19;5016042;28;20041;-63
2021/11/21 03:25:15;;;;;;;0.55;0.35;;;;;;;3.40;81.53;97179.91;5022804;28;20045;-65
2021/11/21 03:27:42;;;;;;;0.57;0.20;;;;;;;3.32;81.82;97174.28;5029600;28;20037;-64
2021/11/21 03:30:11;;;;;;;0.82;0.30;;;;;;;3.32;82.02;97172.53;5023973;28;20041;-66
2021/11/21 03:32:37;;;;;;;0.30;0.20;;;;;;;3.42;82.11;97175.53;5031725;28;20574;-65
2021/11/21 03:35:03;;;;;;;0.77;0.32;;;;;;;3.50;82.32;97168.31;5020441;28;20041;-65
2021/11/21 03:37:29;;;;;;;1.25;0.43;;;;;;;3.53;81.89;97182.72;5030554;28;20091;-64
2021/11/21 03:39:55;;;;;;;0.40;0.40;;;;;;;3.40;82.58;97169.66;5023864;28;20050;-65
2021/11/21 03:42:21;;;;;;;0.75;0.35;;;;;;;3.33;82.93;97179.34;5024948;28;20046;-65
2021/11/21 03:44:47;;;;;;;1.48;0.38;;;;;;;3.14;84.44;97175.13;5018886;28;20175;-66
2021/11/21 03:47:13;;;;;;;0.73;0.30;;;;;;;3.19;85.50;97188.59;5034087;28;20046;-64
2021/11/21 03:49:39;;;;;;;1.40;0.50;;;;;;;3.22;85.75;97180.72;5019377;28;20141;-64
2021/11/21 03:52:05;;;;;;;0.70;0.50;;;;;;;3.19;86.15;97183.44;5030126;28;20128;-65
2021/11/21 03:54:31;;;;;;;0.73;0.47;;;;;;;3.13;86.98;97174.28;5020692;28;20084;-63
2021/11/21 03:56:58;;;;;;;1.85;0.50;;;;;;;3.23;87.36;97190.09;5012590;28;20057;-63
2021/11/21 03:59:24;;;;;;;0.82;0.52;;;;;;;3.24;87.83;97176.38;5015943;28;20429;-62
2021/11/21 04:01:50;;;;;;;1.48;0.77;;;;;;;3.24;88.27;97178.94;5013856;28;20038;-64
2021/11/21 04:04:16;;;;;;;1.33;0.80;;;;;;;3.03;89.83;97192.72;5036353;28;20049;-65
2021/11/21 04:06:41;;;;;;;1.55;0.70;;;;;;;2.92;90.79;97186.34;5022059;28;20520;-65
2021/11/21 04:09:08;;;;;;;1.10;0.80;;;;;;;2.94;91.16;97191.38;5011455;28;20129;-64
2021/11/21 04:11:33;;;;;;;0.98;0.50;;;;;;;2.86;91.70;97172.94;5018400;28;20371;-64
2021/11/21 04:14:00;;;;;;;1.30;0.60;;;;;;;2.96;92.20;97185.28;5024579;28;20041;-62
2021/11/21 04:16:27;;;;;;;1.73;0.70;;;;;;;2.84;92.70;97178.13;5011442;28;20103;-64
2021/11/21 04:18:53;;;;;;;1.63;0.70;;;;;;;2.80;93.37;97186.88;5014951;28;20077;-65
2021/11/21 04:21:20;;;;;;;1.38;0.73;;;;;;;2.74;94.34;97192.25;5013047;28;20153;-64
2021/11/21 04:23:46;;;;;;;0.75;0.43;;;;;;;2.74;95.53;97188.84;5010752;28;20562;-63
2021/11/21 04:26:12;;;;;;;0.82;0.50;;;;;;;2.64;95.78;97200.41;5030234;28;20041;-66
2021/11/21 04:28:38;;;;;;;0.88;0.60;;;;;;;2.56;96.44;97203.31;5028656;28;20052;-66
2021/11/21 04:31:05;;;;;;;0.90;0.68;;;;;;;2.55;96.53;97206.78;5009931;28;20131;-63
2021/11/21 04:33:32;;;;;;;1.08;0.70;;;;;;;2.60;96.74;97204.00;5022418;28;20132;-66
2021/11/21 04:35:58;;;;;;;2.15;0.82;;;;;;;2.61;96.77;97205.69;5017700;28;20196;-66
2021/11/21 04:38:24;;;;;;;1.80;0.60;;;;;;;2.50;96.29;97183.06;5022645;28;20532;-64
2021/11/21 04:40:52;;;;;;;0.80;0.50;;;;;;;2.53;96.33;97193.16;5021108;28;20050;-65
2021/11/21 04:43:20;;;;;;;1.80;1.00;;;;;;;2.50;96.20;97201.00;5012542;28;20037;-66
2021/11/21 04:45:47;;;;;;;1.48;0.70;;;;;;;2.59;97.18;97216.00;5012314;28;20360;-65
2021/11/21 04:48:13;;;;;;;1.15;0.70;;;;;;;2.63;96.79;97216.69;5028565;28;20464;-66
2021/11/21 04:50:39;;;;;;;3.75;0.70;;;;;;;2.64;97.00;97226.06;5021347;28;20045;-65
2021/11/21 04:53:05;;;;;;;0.90;0.60;;;;;;;2.62;96.69;97222.75;5018122;28;20132;-65
2021/11/21 04:55:32;;;;;;;1.85;0.88;;;;;;;2.45;97.13;97213.19;5020246;28;20057;-65
2021/11/21 04:57:58;;;;;;;0.45;0.40;;;;;;;2.62;96.92;97225.31;5015972;28;20140;-65
2021/11/21 05:00:24;;;;;;;0.60;0.40;;;;;;;2.69;96.62;97222.41;5028201;28;20120;-65
2021/11/21 05:02:50;;;;;;;0.73;0.40;;;;;;;2.69;96.13;97231.81;5028715;28;20041;-64
2021/11/21 05:05:18;;;;;;;1.42;0.40;;;;;;;2.72;96.81;97231.72;5024484;28;20045;-65
2021/11/21 05:07:44;;;;;;;0.65;0.47;;;;;;;2.69;96.65;97221.56;5010734;28;20044;-66
2021/11/21 05:10:10;;;;;;;0.40;0.30;;;;;;;2.82;96.48;97238.13;5011548;28;20041;-64
2021/11/21 05:12:38;;;;;;;4.03;0.80;;;;;;;2.90;96.31;97230.91;5017638;28;20133;-64
2021/11/21 05:15:06;;;;;;;1.23;0.50;;;;;;;2.81;95.96;97239.00;5015606;28;20085;-65
2021/11/21 05:17:32;;;;;;;1.27;0.70;;;;;;;2.73;96.57;97241.88;5028886;28;20103;-66
2021/11/21 05:19:58;;;;;;;0.70;0.60;;;;;;;2.68;97.09;97230.16;5019158;28;20041;-65
2021/11/21 05:22:25;;;;;;;2.60;0.60;;;;;;;2.59;96.75;97226.25;5037901;28;20509;-64
2021/11/21 05:24:51;;;;;;;3.80;0.68;;;;;;;2.53;96.32;97218.81;5028531;28;20049;-66
2021/11/21 05:27:17;;;;;;;2.47;0.70;;;;;;;2.60;96.67;97227.91;5029482;28;20091;-66
2021/11/21 05:29:42;;;;;;;1.30;0.63;;;;;;;2.60;96.46;97225.34;5007157;28;20723;-65
2021/11/21 05:32:10;;;;;;;3.03;0.82;;;;;;;2.58;95.54;97231.44;5025910;28;20044;-64
2021/11/21 05:34:36;;;;;;;2.28;0.70;;;;;;;2.63;95.66;97244.91;5027916;28;20072;-66
2021/11/21 05:37:02;;;;;;;1.67;0.40;;;;;;;2.64;95.78;97241.44;5032547;28;20063;-66
2021/11/21 05:39:28;;;;;;;3.38;0.65;;;;;;;2.50;96.59;97245.44;5025091;28;20041;-66
2021/11/21 05:41:54;;;;;;;0.90;0.70;;;;;;;2.38;97.43;97227.97;5024871;28;20042;-64
2021/11/21 05:44:20;;;;;;;2.10;0.52;;;;;;;2.40;97.07;97221.06;5024522;28;20072;-64
2021/11/21 05:46:46;;;;;;;0.57;0.45;;;;;;;2.42;96.59;97239.75;5030929;28;20497;-65
2021/11/21 05:49:12;;;;;;;0.95;0.70;;;;;;;2.38;97.15;97230.53;5026460;28;20124;-64
2021/11/21 05:51:38;;;;;;;1.17;0.68;;;;;;;2.41;96.93;97232.97;5017783;28;20456;-65
2021/11/21 05:54:04;;;;;;;1.52;0.70;;;;;;;2.44;96.69;97237.97;5024334;28;20496;-68
2021/11/21 05:56:30;;;;;;;1.17;0.70;;;;;;;2.45;96.36;97236.25;5018521;28;20185;-65
2021/11/21 05:58:56;;;;;;;2.58;0.70;;;;;;;2.50;95.99;97237.72;5017646;28;20509;-66
2021/11/21 06:01:22;;;;;;;1.75;0.90;;;;;;;2.56;95.87;97234.09;5029320;28;20044;-66
2021/11/21 06:03:51;;;;;;;1.40;0.70;;;;;;;2.59;95.08;97231.38;5008093;28;20163;-68
2021/11/21 06:06:21;;;;;;;0.85;0.47;;;;;;;2.56;95.38;97234.88;5033545;28;20048;-65
2021/11/21 06:08:47;;;;;;;1.75;0.88;;;;;;;2.60;95.77;97238.19;5021657;28;20069;-68
2021/11/21 06:11:14;;;;;;;1.48;0.70;;;;;;;2.64;96.06;97233.75;5012471;28;20144;-65
2021/11/21 06:13:41;;;;;;;3.22;0.77;;;;;;;2.63;96.28;97237.19;5014829;28;20030;-65
2021/11/21 06:16:07;;;;;;;2.40;0.90;;;;;;;2.62;96.69;97226.09;5029009;28;20045;-65
2021/11/21 06:18:33;;;;;;;4.03;1.13;;;;;;;2.50;96.70;97206.13;5023413;28;20038;-66
2021/11/21 06:20:59;;;;;;;3.53;0.85;;;;;;;2.74;95.78;97238.44;5012644;28;20045;-68
2021/11/21 06:23:25;;;;;;;2.10;0.90;;;;;;;2.72;95.45;97242.78;5029706;28;20496;-66
2021/11/21 06:25:51;;;;;;;4.30;0.82;;;;;;;2.74;94.74;97245.28;5047269;28;20060;-65
2021/11/21 06:28:19;;;;;;;2.67;1.00;;;;;;;2.75;94.66;97242.66;5032065;28;20046;-66
2021/11/21 06:30:45;;;;;;;1.25;0.60;;;;;;;2.68;92.48;97236.13;5015094;28;20041;-64
2021/11/21 06:33:12;;;;;;;2.55;0.93;;;;;;;2.81;92.09;97247.53;5028792;28;20168;-67
2021/11/21 06:35:39;;;;;;;5.70;1.08;;;;;;;2.86;91.41;97248.19;5030834;28;20040;-66
2021/11/21 06:38:05;;;;;;;3.42;1.05;;;;;;;2.88;90.55;97235.25;5033106;28;20037;-65
2021/11/21 06:40:34;;;;;;;3.00;1.00;;;;;;;2.95;89.85;97237.50;5033181;28;20084;-65
2021/11/21 06:42:59;;;;;;;1.45;0.80;;;;;;;3.14;89.43;97257.25;5029292;28;20072;-67
2021/11/21 06:45:26;;;;;;;4.85;1.08;;;;;;;3.09;87.48;97265.13;5028582;28;20045;-66
2021/11/21 06:47:52;;;;;;;3.20;0.93;;;;;;;3.04;87.12;97250.84;5032146;28;20161;-66
2021/11/21 06:50:18;;;;;;;1.83;0.90;;;;;;;3.08;86.72;97260.09;5017097;28;20068;-65
2021/11/21 06:52:44;;;;;;;1.92;0.88;;;;;;;3.25;86.13;97260.16;5035431;28;20040;-65
2021/11/21 06:55:12;;;;;;;3.10;0.88;;;;;;;3.38;84.59;97263.88;5047183;28;20038;-65
2021/11/21 06:57:38;;;;;;;1.95;0.68;;;;;;;3.37;83.79;97268.19;5032860;28;20120;-64
2021/11/21 07:00:10;;;;;;;3.13;0.70;;;;;;;3.24;83.31;97264.50;5020625;28;20045;-66
2021/11/21 07:02:36;;;;;;;1.60;0.80;;;;;;;3.18;83.91;97287.84;5031349;28;20050;-69
2021/11/21 07:05:02;;;;;;;1.52;0.80;;;;;;;3.16;83.73;97269.13;5035976;28;20509;-64
2021/11/21 07:07:29;;;;;;;2.53;0.80;;;;;;;3.26;83.36;97265.25;5035861;28;20049;-64
2021/11/21 07:09:57;;;;;;;3.95;0.77;;;;;;;3.30;83.22;97278.75;5039276;28;20041;-65
2021/11/21 07:12:23;;;;;;;2.05;0.88;;;;;;;3.19;83.33;97253.56;5043469;28;20047;-65
2021/11/21 07:14:49;;;;;;;6.68;1.25;;;;;;;3.37;83.29;97272.47;5032403;28;20041;-70
2021/11/21 07:17:15;;;;;;;2.42;0.80;;;;;;;3.38;82.21;97274.97;5031809;28;20524;-68
2021/11/21 07:19:40;;;;;;;4.03;1.05;;;;;;;3.30;82.11;97281.34;5024531;28;20045;-69
2021/11/21 07:22:15;;;;;;;2.08;1.02;;;;;;;3.25;82.41;97268.69;5049495;28;20053;-65
2021/11/21 07:24:40;;;;;;;4.72;1.02;;;;;;;3.31;81.86;97280.44;5034215;28;20429;-64
2021/11/21 07:27:06;;;;;;;1.55;0.93;;;;;;;3.40;81.83;97282.63;5025444;28;20087;-64
2021/11/21 07:29:36;;;;;;;3.53;1.05;;;;;;;3.47;81.42;97283.16;5024837;28;20123;-63
2021/11/21 07:32:05;;;;;;;2.03;0.65;;;;;;;3.44;80.20;97286.72;5012578;28;20048;-68
2021/11/21 07:34:31;;;;;;;1.95;1.00;;;;;;;3.45;79.96;97277.28;5028058;28;20053;-66
2021/11/21 07:36:59;;;;;;;2.22;0.70;;;;;;;3.71;79.03;97284.66;5015100;28;20041;-66
2021/11/21 07:39:27;;;;;;;1.42;0.70;;;;;;;3.61;78.23;97302.19;5034036;28;20056;-65
2021/11/21 07:41:53;;;;;;;2.65;0.90;;;;;;;3.50;77.60;97283.88;5016781;28;20132;-65
2021/11/21 07:44:19;;;;;;;2.47;0.60;;;;;;;3.59;76.65;97298.03;5013876;28;20080;-65
2021/11/21 07:46:45;;;;;;;3.80;0.80;;;;;;;3.60;77.46;97297.16;5014677;28;20046;-62
2021/11/21 07:49:11;;;;;;;1.58;0.73;;;;;;;3.59;77.20;97298.88;5018491;28;20048;-63
2021/11/21 07:51:37;;;;;;;2.25;0.70;;;;;;;3.63;76.52;97287.56;5011186;28;20038;-66
2021/11/21 07:54:02;;;;;;;1.67;0.52;;;;;;;3.70;75.24;97298.41;5023489;28;20048;-66
2021/11/21 07:56:28;;;;;;;1.13;0.60;;;;;;;3.67;75.51;97289.06;5022239;28;20060;-65
2021/11/21 07:58:54;;;;;;;1.42;0.50;;;;;;;3.73;75.22;97282.81;5011888;28;20507;-62
2021/11/21 08:01:20;;;;;;;1.95;0.85;;;;;;;3.78;75.00;97293.72;5020128;28;20506;-66
2021/11/21 08:03:46;;;;;;;2.58;0.80;;;;;;;3.94;74.48;97288.72;5016164;28;20033;-65
2021/11/21 08:06:12;;;;;;;1.75;0.60;;;;;;;3.99;73.93;97300.47;5023573;28;20056;-67
2021/11/21 08:08:38;;;;;;;0.93;0.50;;;;;;;3.91;73.15;97304.28;5027493;28;20713;-65
2021/11/21 08:11:04;;;;;;;1.95;0.77;;;;;;;3.90;73.67;97295.75;5029020;28;20044;-65
2021/11/21 08:13:30;;;;;;;1.13;0.60;;;;;;;4.03;72.95;97298.59;5019842;28;20123;-66
2021/11/21 08:15:59;;;;;;;1.38;0.70;;;;;;;4.04;72.80;97303.66;5024161;28;20183;-66
2021/11/21 08:18:25;;;;;;;1.10;0.80;;;;;;;4.18;72.27;97305.59;5026214;28;20036;-68
2021/11/21 08:20:53;;;;;;;1.27;0.80;;;;;;;3.93;72.56;97285.31;5023989;28;20056;-66
2021/11/21 08:23:19;;;;;;;4.28;1.00;;;;;;;4.02;72.01;97297.75;5035718;28;20037;-67
2021/11/21 08:25:45;;;;;;;1.40;0.60;;;;;;;4.02;71.54;97297.75;5043522;28;20051;-65
2021/11/21 08:28:11;;;;;;;1.00;0.63;;;;;;;3.90;72.09;97282.06;5036612;28;20044;-66
2021/11/21 08:30:38;;;;;;;1.52;0.80;;;;;;;4.03;71.04;97299.41;5039342;28;20034;-67
2021/11/21 08:33:05;;;;;;;1.67;0.80;;;;;;;4.02;71.36;97292.63;5032639;28;20034;-67
2021/11/21 08:35:32;;;;;;;3.47;0.90;;;;;;;4.09;70.61;97304.28;5022418;28;20399;-67
2021/11/21 08:37:58;;;;;;;2.50;0.95;;;;;;;4.16;70.28;97304.81;5024647;28;20543;-67
2021/11/21 08:40:23;;;;;;;1.10;0.60;;;;;;;4.18;69.85;97301.28;5021777;28;20045;-60
2021/11/21 08:42:49;;;;;;;1.73;0.70;;;;;;;4.26;69.72;97311.19;5030550;28;20203;-59
2021/11/21 08:45:15;;;;;;;2.17;0.70;;;;;;;4.35;69.49;97308.19;5031615;28;20041;-61
2021/11/21 08:47:41;;;;;;;5.57;1.25;;;;;;;4.43;68.69;97313.81;5030220;28;20045;-63
2021/11/21 08:50:09;;;;;;;3.30;0.93;;;;;;;4.39;67.42;97304.59;5028838;28;20053;-61
2021/11/21 08:52:36;;;;;;;1.27;0.80;;;;;;;4.20;67.20;97291.75;5026400;28;20045;-60
2021/11/21 08:55:03;;;;;;;2.67;1.20;;;;;;;4.44;67.65;97312.91;5032682;28;20055;-61
2021/11/21 08:57:29;;;;;;;2.78;0.80;;;;;;;4.52;66.39;97320.25;5037642;28;20060;-62
2021/11/21 08:59:55;;;;;;;1.27;0.52;;;;;;;4.23;65.39;97309.63;5031003;28;20033;-60
2021/11/21 09:02:21;;;;;;;1.02;0.60;;;;;;;4.29;66.73;97305.94;5011248;28;20040;-61
2021/11/21 09:04:46;;;;;;;1.20;0.80;;;;;;;4.35;66.06;97297.06;5011343;28;20095;-61
2021/11/21 09:07:12;;;;;;;2.47;1.08;;;;;;;4.21;65.42;97295.16;5024037;28;20045;-60
2021/11/21 09:09:38;;;;;;;1.65;0.77;;;;;;;4.37;65.67;97314.09;5013502;28;20038;-60
2021/11/21 09:12:04;;;;;;;0.95;0.38;;;;;;;4.43;64.67;97308.66;5036195;28;20048;-60
2021/11/21 09:14:30;;;;;;;2.97;0.90;;;;;;;4.45;65.50;97319.69;5030209;28;20069;-61
2021/11/21 09:16:56;;;;;;;1.08;0.70;;;;;;;4.48;65.00;97306.72;5029591;28;20089;-61
2021/11/21 09:19:22;;;;;;;3.30;1.00;;;;;;;4.61;65.10;97328.34;5026518;28;20044;-61
2021/11/21 09:21:48;;;;;;;1.20;0.75;;;;;;;4.67;64.13;97311.78;5029228;28;20568;-62
2021/11/21 09:24:14;;;;;;;2.88;0.70;;;;;;;4.71;63.99;97323.59;5028474;28;20045;-61
2021/11/21 09:26:40;;;;;;;0.65;0.52;;;;;;;4.68;64.19;97339.19;5034484;28;20659;-62
2021/11/21 09:29:05;;;;;;;1.65;0.82;;;;;;;4.60;63.38;97338.75;5026237;28;20037;-60
2021/11/21 09:31:31;;;;;;;0.80;0.68;;;;;;;4.58;64.00;97333.66;5027992;28;20509;-59
2021/11/21 09:33:57;;;;;;;0.90;0.60;;;;;;;4.75;63.79;97325.13;5030013;28;20809;-61
2021/11/21 09:36:23;;;;;;;1.77;1.00;;;;;;;4.81;63.54;97326.56;5029968;28;20202;-61
2021/11/21 09:38:49;;;;;;;1.83;0.82;;;;;;;4.72;62.81;97327.84;5026022;28;20041;-62
2021/11/21 09:41:15;;;;;;;1.40;0.70;;;;;;;4.60;63.31;97329.28;5022966;28;20037;-60
2021/11/21 09:43:42;;;;;;;1.38;0.80;;;;;;;4.65;63.40;97327.31;5023515;28;20046;-59
2021/11/21 09:46:10;;;;;;;3.25;0.90;;;;;;;4.71;62.97;97346.75;5031367;28;20041;-60
2021/11/21 09:48:37;;;;;;;3.47;1.20;;;;;;;4.61;63.16;97325.78;5026685;28;20044;-62
2021/11/21 09:51:03;;;;;;;2.55;0.90;;;;;;;4.71;62.46;97312.50;5027901;28;20080;-57
2021/11/21 09:53:29;;;;;;;3.63;0.88;;;;;;;4.72;62.26;97319.28;5028537;28;20152;-61
2021/11/21 09:55:56;;;;;;;1.10;0.68;;;;;;;4.84;62.36;97324.66;5006452;28;20064;-62
2021/11/21 09:58:23;;;;;;;2.13;0.82;;;;;;;4.65;61.63;97324.75;5029632;28;20080;-53
2021/11/21 10:00:49;;;;;;;0.90;0.70;;;;;;;4.64;60.92;97327.38;5043492;28;20489;-58
2021/11/21 10:03:16;;;;;;;1.70;0.63;;;;;;;4.59;61.89;97337.06;5027497;28;20071;-58
2021/11/21 10:05:56;;;;;;;2.28;1.20;;;;;;;4.64;61.86;97335.94;5027609;28;20064;-59
2021/11/21 10:08:24;;;;;;;2.13;1.08;;;;;;;4.81;61.88;97339.44;5006547;28;20045;-58
2021/11/21 10:10:53;;;;;;;2.22;0.90;;;;;;;4.81;61.78;97336.88;5008566;28;20064;-59
2021/11/21 10:13:34;;;;;;;2.15;0.98;;;;;;;4.67;61.85;97330.63;5012404;28;20429;-54
2021/11/21 10:16:20;;;;;;;1.90;0.90;;;;;;;4.65;62.06;97331.63;5029078;28;20041;-58
2021/11/21 10:19:09;;;;;;;3.92;0.90;;;;;;;4.66;61.84;97336.69;5044604;28;20036;-58
2021/11/21 10:21:58;;;;;;;1.17;0.60;;;;;;;4.52;61.72;97330.53;5034763;28;20041;-57
2021/11/21 10:24:28;;;;;;;1.95;1.05;;;;;;;4.59;61.58;97332.75;5032289;28;20072;-52
2021/11/21 10:27:12;;;;;;;5.60;1.10;;;;;;;4.47;61.43;97324.78;5032193;28;20540;-54
2021/11/21 10:29:41;;;;;;;1.75;0.80;;;;;;;4.54;62.01;97339.88;5032473;28;20106;-61
2021/11/21 10:32:17;;;;;;;1.98;1.10;;;;;;;4.49;61.85;97339.25;5033272;28;20540;-60
2021/11/21 10:34:57;;;;;;;1.20;0.80;;;;;;;4.50;61.44;97340.88;5033377;28;20047;-61
2021/11/21 10:37:43;;;;;;;1.42;0.70;;;;;;;4.49;61.47;97338.41;5041050;28;20115;-60
2021/11/21 10:40:10;;;;;;;1.70;1.10;;;;;;;4.47;62.23;97340.22;5031671;28;20409;-61
2021/11/21 10:42:36;;;;;;;1.85;1.17;;;;;;;4.49;62.43;97346.97;5029667;28;20076;-58
2021/11/21 10:45:03;;;;;;;3.03;1.30;;;;;;;4.45;62.23;97339.47;5029515;28;20041;-57
2021/11/21 10:47:47;;;;;;;1.95;1.10;;;;;;;4.56;62.76;97350.06;5023496;28;20041;-62
2021/11/21 10:50:30;;;;;;;2.00;1.10;;;;;;;4.45;62.71;97352.34;5027834;28;20133;-58
2021/11/21 10:52:57;;;;;;;2.67;0.98;;;;;;;4.39;63.16;97355.19;5026389;28;20087;-56
2021/11/21 10:55:23;;;;;;;2.42;1.20;;;;;;;4.31;63.48;97340.09;5030314;28;20051;-54
2021/11/21 10:57:49;;;;;;;1.60;1.23;;;;;;;4.43;64.10;97351.56;5030942;28;20124;-56
2021/11/21 11:00:23;;;;;;;3.38;1.20;;;;;;;4.47;63.48;97350.50;4997048;28;20493;-56
2021/11/21 11:02:50;;;;;;;1.52;0.95;;;;;;;4.43;63.52;97349.81;5043665;28;20041;-56
2021/11/21 11:05:22;;;;;;;4.22;1.30;;;;;;;4.36;63.68;97351.00;5029998;28;20156;-56
2021/11/21 11:08:02;;;;;;;1.38;1.05;;;;;;;4.24;63.48;97341.28;5029794;28;20045;-55
2021/11/21 11:10:37;;;;;;;2.60;1.15;;;;;;;4.34;63.70;97360.56;5028879;28;20044;-66
2021/11/21 11:13:08;;;;;;;4.03;1.00;;;;;;;4.34;64.00;97352.84;5031245;28;20052;-65
2021/11/21 11:15:43;;;;;;;3.35;1.40;;;;;;;4.35;63.49;97359.63;5030576;28;20460;-68
2021/11/21 11:18:14;;;;;;;3.00;1.23;;;;;;;4.43;62.77;97354.97;5023182;28;20037;-65
2021/11/21 11:20:44;;;;;;;1.33;0.73;;;;;;;4.48;62.16;97360.72;5031509;28;20056;-65
2021/11/21 11:23:13;;;;;;;3.15;1.20;;;;;;;4.42;62.39;97366.16;5029317;28;20072;-66
2021/11/21 11:25:39;;;;;;;3.92;0.90;;;;;;;4.44;62.58;97353.22;5021851;28;20048;-65
2021/11/21 11:28:16;;;;;;;1.85;0.55;;;;;;;4.40;61.84;97354.25;5050084;28;20041;-68
2021/11/21 11:30:42;;;;;;;1.98;0.90;;;;;;;4.37;61.92;97351.84;5012160;28;20532;-67
2021/11/21 11:33:22;;;;;;;1.58;0.88;;;;;;;4.53;61.82;97356.19;5021075;28;20045;-65
2021/11/21 11:35:53;;;;;;;2.45;1.17;;;;;;;4.26;62.24;97342.06;5045389;28;20513;-65
2021/11/21 11:38:26;;;;;;;1.73;1.08;;;;;;;4.29;63.40;97359.94;5040545;28;20041;-66
2021/11/21 11:40:57;;;;;;;3.10;1.25;;;;;;;4.27;63.57;97361.72;5031117;28;20045;-65
2021/11/21 11:43:30;;;;;;;1.83;0.95;;;;;;;4.08;63.55;97338.59;5023713;28;20045;-67